TIB5530 SBPS-SBRF
Flight info
| Callsign | TIB5530 |
|---|---|
| Flight time | 1h 27m |
| Altitude | 39000 |
| Route | DAKEN UZ42 ANBEX |
| Aircraft | B736/M-SDE2E3FGHIRWXY/LB1 |
Departure
| Time | 2026-04-30 11:41 |
|---|---|
| Airport | Porto Seguro International Airport (SBPS) |
Arrival
| Time | 2026-04-30 13:08 |
|---|---|
| Airport | Recife/Guararapes - Gilberto Freyre International Airport (SBRF) |
| Time | Latitude | Longitude | Altitude | Speed | Heading |
|---|---|---|---|---|---|
| 2026-04-30 11:21 | -16.44067 | -39.08098 | 169 ft | 0 kts | 185° |
| 2026-04-30 11:31 | -16.44063 | -39.08098 | 169 ft | 3 kts | 184° |
| 2026-04-30 11:31 | -16.44043 | -39.08097 | 169 ft | 3 kts | 147° |
| 2026-04-30 11:32 | -16.44031 | -39.08115 | 169 ft | 3 kts | 110° |
| 2026-04-30 11:32 | -16.44027 | -39.08135 | 169 ft | 3 kts | 78° |
| 2026-04-30 11:32 | -16.44028 | -39.08141 | 169 ft | 0 kts | 67° |
| 2026-04-30 11:34 | -16.44029 | -39.08145 | 170 ft | 0 kts | 67° |
| 2026-04-30 11:34 | -16.44031 | -39.08149 | 170 ft | 0 kts | 67° |
| 2026-04-30 11:35 | -16.44030 | -39.08145 | 170 ft | 2 kts | 68° |
| 2026-04-30 11:35 | -16.44016 | -39.08126 | 169 ft | 4 kts | 36° |
| 2026-04-30 11:36 | -16.43983 | -39.08123 | 169 ft | 5 kts | 348° |
| 2026-04-30 11:36 | -16.43949 | -39.08130 | 169 ft | 5 kts | 349° |
| 2026-04-30 11:36 | -16.43916 | -39.08139 | 169 ft | 5 kts | 342° |
| 2026-04-30 11:36 | -16.43884 | -39.08147 | 169 ft | 5 kts | 358° |
| 2026-04-30 11:37 | -16.43862 | -39.08124 | 169 ft | 5 kts | 66° |
| 2026-04-30 11:37 | -16.43851 | -39.08092 | 168 ft | 5 kts | 71° |
| 2026-04-30 11:37 | -16.43841 | -39.08053 | 168 ft | 7 kts | 75° |
| 2026-04-30 11:37 | -16.43825 | -39.07997 | 167 ft | 9 kts | 74° |
| 2026-04-30 11:38 | -16.43805 | -39.07924 | 167 ft | 11 kts | 73° |
| 2026-04-30 11:38 | -16.43783 | -39.07841 | 168 ft | 12 kts | 75° |
| 2026-04-30 11:38 | -16.43759 | -39.07752 | 168 ft | 13 kts | 73° |
| 2026-04-30 11:38 | -16.43731 | -39.07654 | 168 ft | 15 kts | 73° |
| 2026-04-30 11:39 | -16.43703 | -39.07544 | 167 ft | 16 kts | 74° |
| 2026-04-30 11:39 | -16.43673 | -39.07431 | 167 ft | 16 kts | 74° |
| 2026-04-30 11:39 | -16.43654 | -39.07318 | 165 ft | 16 kts | 92° |
| 2026-04-30 11:39 | -16.43653 | -39.07220 | 163 ft | 13 kts | 70° |
| 2026-04-30 11:40 | -16.43622 | -39.07212 | 162 ft | 5 kts | 317° |
| 2026-04-30 11:40 | -16.43620 | -39.07239 | 163 ft | 3 kts | 253° |
| 2026-04-30 11:40 | -16.43622 | -39.07246 | 163 ft | 0 kts | 253° |
| 2026-04-30 11:40 | -16.43671 | -39.07428 | 167 ft | 68 kts | 254° |
| 2026-04-30 11:41 | -16.43884 | -39.08210 | 175 ft | 149 kts | 255° |
| 2026-04-30 11:41 | -16.44183 | -39.09291 | 926 ft | 155 kts | 252° |
| 2026-04-30 11:41 | -16.44263 | -39.10422 | 1787 ft | 162 kts | 292° |
| 2026-04-30 11:41 | -16.43637 | -39.11420 | 2456 ft | 182 kts | 319° |
| 2026-04-30 11:42 | -16.42402 | -39.12003 | 2865 ft | 214 kts | 346° |
| 2026-04-30 11:42 | -16.40817 | -39.12117 | 3215 ft | 239 kts | 9° |
| 2026-04-30 11:42 | -16.39156 | -39.11848 | 3977 ft | 249 kts | 11° |
| 2026-04-30 11:42 | -16.37378 | -39.11539 | 4598 ft | 268 kts | 12° |
| 2026-04-30 11:43 | -16.35527 | -39.11220 | 5653 ft | 271 kts | 12° |
| 2026-04-30 11:43 | -16.33659 | -39.10905 | 6805 ft | 274 kts | 12° |
| 2026-04-30 11:43 | -16.31734 | -39.10585 | 7830 ft | 279 kts | 12° |
| 2026-04-30 11:43 | -16.29811 | -39.10269 | 8823 ft | 283 kts | 12° |
| 2026-04-30 11:44 | -16.27845 | -39.09951 | 9842 ft | 288 kts | 12° |
| 2026-04-30 11:44 | -16.25834 | -39.09627 | 10644 ft | 300 kts | 12° |
| 2026-04-30 11:44 | -16.23677 | -39.09278 | 10901 ft | 330 kts | 12° |
| 2026-04-30 11:44 | -16.21355 | -39.08905 | 11431 ft | 344 kts | 11° |
| 2026-04-30 11:45 | -16.18944 | -39.08524 | 12222 ft | 350 kts | 11° |
| 2026-04-30 11:45 | -16.16533 | -39.08146 | 13027 ft | 354 kts | 11° |
| 2026-04-30 11:45 | -16.14091 | -39.07764 | 13799 ft | 359 kts | 11° |
| 2026-04-30 11:45 | -16.11618 | -39.07376 | 14457 ft | 364 kts | 11° |
| 2026-04-30 11:46 | -16.09081 | -39.06978 | 15158 ft | 366 kts | 11° |
| 2026-04-30 11:46 | -16.06552 | -39.06581 | 15837 ft | 370 kts | 11° |
| 2026-04-30 11:46 | -16.04011 | -39.06182 | 16511 ft | 373 kts | 11° |
| 2026-04-30 11:46 | -16.01414 | -39.05774 | 17184 ft | 376 kts | 11° |
| 2026-04-30 11:47 | -15.98841 | -39.05370 | 17833 ft | 380 kts | 11° |
| 2026-04-30 11:47 | -15.96219 | -39.04958 | 18469 ft | 384 kts | 11° |
| 2026-04-30 11:47 | -15.93546 | -39.04538 | 19039 ft | 387 kts | 11° |
| 2026-04-30 11:47 | -15.90883 | -39.04119 | 19606 ft | 390 kts | 11° |
| 2026-04-30 11:48 | -15.88206 | -39.03699 | 20160 ft | 393 kts | 11° |
| 2026-04-30 11:48 | -15.85487 | -39.03272 | 20710 ft | 397 kts | 11° |
| 2026-04-30 11:48 | -15.82750 | -39.02842 | 21269 ft | 399 kts | 11° |
| 2026-04-30 11:48 | -15.79963 | -39.02405 | 21825 ft | 403 kts | 11° |
| 2026-04-30 11:49 | -15.77190 | -39.01970 | 22349 ft | 406 kts | 11° |
| 2026-04-30 11:49 | -15.74401 | -39.01533 | 22871 ft | 409 kts | 11° |
| 2026-04-30 11:49 | -15.71569 | -39.01089 | 23399 ft | 412 kts | 11° |
| 2026-04-30 11:49 | -15.68705 | -39.00640 | 23860 ft | 416 kts | 11° |
| 2026-04-30 11:50 | -15.65851 | -39.00192 | 24273 ft | 419 kts | 11° |
| 2026-04-30 11:50 | -15.62932 | -38.99735 | 24700 ft | 422 kts | 11° |
| 2026-04-30 11:50 | -15.60002 | -38.99277 | 25121 ft | 425 kts | 11° |
| 2026-04-30 11:50 | -15.57086 | -38.98820 | 25532 ft | 428 kts | 11° |
| 2026-04-30 11:51 | -15.54153 | -38.98361 | 25941 ft | 431 kts | 11° |
| 2026-04-30 11:51 | -15.51160 | -38.97893 | 26352 ft | 434 kts | 11° |
| 2026-04-30 11:51 | -15.48190 | -38.97428 | 26740 ft | 437 kts | 11° |
| 2026-04-30 11:51 | -15.45140 | -38.96951 | 27132 ft | 440 kts | 11° |
| 2026-04-30 11:52 | -15.42103 | -38.96477 | 27526 ft | 443 kts | 11° |
| 2026-04-30 11:52 | -15.39060 | -38.96001 | 27911 ft | 445 kts | 11° |
| 2026-04-30 11:52 | -15.35995 | -38.95523 | 28297 ft | 448 kts | 11° |
| 2026-04-30 11:52 | -15.32877 | -38.95036 | 28671 ft | 451 kts | 11° |
| 2026-04-30 11:53 | -15.29808 | -38.94556 | 29030 ft | 454 kts | 11° |
| 2026-04-30 11:53 | -15.26668 | -38.94066 | 29389 ft | 456 kts | 11° |
| 2026-04-30 11:53 | -15.23509 | -38.93573 | 29742 ft | 459 kts | 10° |
| 2026-04-30 11:53 | -15.20329 | -38.93077 | 30085 ft | 461 kts | 11° |
| 2026-04-30 11:54 | -15.17221 | -38.92384 | 30364 ft | 462 kts | 18° |
| 2026-04-30 11:54 | -15.14209 | -38.91201 | 30634 ft | 462 kts | 28° |
| 2026-04-30 11:54 | -15.11345 | -38.89691 | 30952 ft | 463 kts | 29° |
| 2026-04-30 11:54 | -15.08479 | -38.88127 | 31236 ft | 465 kts | 30° |
| 2026-04-30 11:55 | -15.05632 | -38.86560 | 31508 ft | 467 kts | 30° |
| 2026-04-30 11:55 | -15.02743 | -38.84977 | 31793 ft | 469 kts | 30° |
| 2026-04-30 11:55 | -14.99840 | -38.83400 | 32168 ft | 468 kts | 29° |
| 2026-04-30 11:55 | -14.96972 | -38.81854 | 32595 ft | 467 kts | 29° |
| 2026-04-30 11:56 | -14.94086 | -38.80307 | 33034 ft | 465 kts | 29° |
| 2026-04-30 11:56 | -14.91198 | -38.78764 | 33437 ft | 465 kts | 29° |
| 2026-04-30 11:56 | -14.88355 | -38.77248 | 33839 ft | 465 kts | 29° |
| 2026-04-30 11:56 | -14.85473 | -38.75713 | 34259 ft | 464 kts | 29° |
| 2026-04-30 11:57 | -14.82590 | -38.74177 | 34620 ft | 463 kts | 29° |
| 2026-04-30 11:57 | -14.79745 | -38.72661 | 34945 ft | 463 kts | 29° |
| 2026-04-30 11:57 | -14.76895 | -38.71143 | 35271 ft | 463 kts | 29° |
| 2026-04-30 11:57 | -14.74014 | -38.69609 | 35611 ft | 462 kts | 29° |
| 2026-04-30 11:58 | -14.71172 | -38.68096 | 35928 ft | 462 kts | 30° |
| 2026-04-30 11:58 | -14.68336 | -38.66586 | 36237 ft | 461 kts | 30° |
| 2026-04-30 11:58 | -14.65471 | -38.65061 | 36530 ft | 461 kts | 30° |
| 2026-04-30 11:58 | -14.62631 | -38.63550 | 36836 ft | 461 kts | 30° |
| 2026-04-30 11:59 | -14.59787 | -38.62038 | 37142 ft | 460 kts | 30° |
| 2026-04-30 11:59 | -14.56927 | -38.60517 | 37428 ft | 460 kts | 30° |
| 2026-04-30 11:59 | -14.54070 | -38.58998 | 37697 ft | 460 kts | 30° |
| 2026-04-30 11:59 | -14.51254 | -38.57501 | 37986 ft | 460 kts | 30° |
| 2026-04-30 12:00 | -14.48396 | -38.55983 | 38273 ft | 459 kts | 30° |
| 2026-04-30 12:00 | -14.45540 | -38.54466 | 38535 ft | 459 kts | 30° |
| 2026-04-30 12:00 | -14.42717 | -38.52967 | 38795 ft | 458 kts | 30° |
| 2026-04-30 12:00 | -14.39900 | -38.51472 | 39004 ft | 458 kts | 30° |
| 2026-04-30 12:01 | -14.34224 | -38.48460 | 39068 ft | 459 kts | 30° |
| 2026-04-30 12:01 | -14.28549 | -38.45452 | 39061 ft | 457 kts | 30° |
| 2026-04-30 12:02 | -14.22908 | -38.42463 | 39068 ft | 455 kts | 30° |
| 2026-04-30 12:02 | -14.17263 | -38.39473 | 39057 ft | 454 kts | 30° |
| 2026-04-30 12:03 | -14.08846 | -38.35017 | 39057 ft | 454 kts | 30° |
| 2026-04-30 12:04 | -14.03219 | -38.32041 | 39055 ft | 454 kts | 30° |
| 2026-04-30 12:04 | -13.97622 | -38.29082 | 39059 ft | 455 kts | 30° |
| 2026-04-30 12:05 | -13.91987 | -38.26104 | 39057 ft | 455 kts | 30° |
| 2026-04-30 12:05 | -13.86331 | -38.23117 | 39054 ft | 456 kts | 30° |
| 2026-04-30 12:06 | -13.80687 | -38.20139 | 39055 ft | 457 kts | 30° |
| 2026-04-30 12:06 | -13.75026 | -38.17153 | 39051 ft | 457 kts | 30° |
| 2026-04-30 12:07 | -13.69358 | -38.14165 | 39050 ft | 458 kts | 30° |
| 2026-04-30 12:07 | -13.63687 | -38.11177 | 39055 ft | 458 kts | 30° |
| 2026-04-30 12:08 | -13.58012 | -38.08188 | 39049 ft | 458 kts | 30° |
| 2026-04-30 12:08 | -13.52343 | -38.05205 | 39048 ft | 458 kts | 30° |
| 2026-04-30 12:09 | -13.46670 | -38.02221 | 39048 ft | 458 kts | 30° |
| 2026-04-30 12:09 | -13.40992 | -37.99235 | 39045 ft | 458 kts | 30° |
| 2026-04-30 12:10 | -13.35332 | -37.96261 | 39044 ft | 458 kts | 30° |
| 2026-04-30 12:10 | -13.29638 | -37.93271 | 39044 ft | 458 kts | 30° |
| 2026-04-30 12:11 | -13.23982 | -37.90302 | 39043 ft | 457 kts | 30° |
| 2026-04-30 12:11 | -13.18326 | -37.87334 | 39049 ft | 457 kts | 30° |
| 2026-04-30 12:12 | -13.12659 | -37.84363 | 39045 ft | 457 kts | 30° |
| 2026-04-30 12:12 | -13.07003 | -37.81398 | 39046 ft | 457 kts | 30° |
| 2026-04-30 12:13 | -13.01335 | -37.78429 | 39043 ft | 457 kts | 30° |
| 2026-04-30 12:13 | -12.95644 | -37.75450 | 39045 ft | 457 kts | 30° |
| 2026-04-30 12:14 | -12.89981 | -37.72486 | 39042 ft | 458 kts | 30° |
| 2026-04-30 12:14 | -12.84294 | -37.69512 | 39048 ft | 458 kts | 30° |
| 2026-04-30 12:15 | -12.78635 | -37.66554 | 39039 ft | 458 kts | 30° |
| 2026-04-30 12:15 | -12.72969 | -37.63593 | 39035 ft | 458 kts | 30° |
| 2026-04-30 12:16 | -12.67296 | -37.60630 | 39038 ft | 458 kts | 30° |
| 2026-04-30 12:16 | -12.61601 | -37.57658 | 39033 ft | 459 kts | 30° |
| 2026-04-30 12:17 | -12.53075 | -37.53210 | 39037 ft | 459 kts | 30° |
| 2026-04-30 12:17 | -12.47365 | -37.50234 | 39036 ft | 459 kts | 30° |
| 2026-04-30 12:18 | -12.42623 | -37.47763 | 39028 ft | 459 kts | 30° |
| 2026-04-30 12:18 | -12.36951 | -37.44808 | 39032 ft | 459 kts | 30° |
| 2026-04-30 12:19 | -12.31274 | -37.41853 | 39036 ft | 459 kts | 30° |
| 2026-04-30 12:19 | -12.25564 | -37.38882 | 39029 ft | 459 kts | 30° |
| 2026-04-30 12:20 | -12.19897 | -37.35935 | 39033 ft | 459 kts | 30° |
| 2026-04-30 12:20 | -12.14200 | -37.32974 | 39031 ft | 458 kts | 30° |
| 2026-04-30 12:21 | -12.08490 | -37.30006 | 39030 ft | 458 kts | 30° |
| 2026-04-30 12:21 | -12.02801 | -37.27052 | 39033 ft | 458 kts | 30° |
| 2026-04-30 12:22 | -11.97140 | -37.24113 | 39019 ft | 458 kts | 30° |
| 2026-04-30 12:22 | -11.91463 | -37.21168 | 39029 ft | 458 kts | 30° |
| 2026-04-30 12:23 | -11.85770 | -37.18215 | 39021 ft | 458 kts | 30° |
| 2026-04-30 12:23 | -11.80063 | -37.15257 | 39019 ft | 458 kts | 30° |
| 2026-04-30 12:24 | -11.74401 | -37.12323 | 39025 ft | 458 kts | 29° |
| 2026-04-30 12:24 | -11.68735 | -37.09388 | 39013 ft | 458 kts | 29° |
| 2026-04-30 12:25 | -11.63010 | -37.06424 | 39019 ft | 458 kts | 29° |
| 2026-04-30 12:25 | -11.57337 | -37.03489 | 39014 ft | 458 kts | 29° |
| 2026-04-30 12:26 | -11.51640 | -37.00549 | 39020 ft | 458 kts | 29° |
| 2026-04-30 12:26 | -11.45930 | -36.97603 | 39023 ft | 458 kts | 29° |
| 2026-04-30 12:27 | -11.40265 | -36.94681 | 39013 ft | 458 kts | 29° |
| 2026-04-30 12:27 | -11.34589 | -36.91754 | 39010 ft | 458 kts | 29° |
| 2026-04-30 12:28 | -11.28848 | -36.88794 | 39007 ft | 458 kts | 29° |
| 2026-04-30 12:28 | -11.23249 | -36.85909 | 39010 ft | 458 kts | 29° |
| 2026-04-30 12:29 | -11.17556 | -36.82977 | 39009 ft | 458 kts | 29° |
| 2026-04-30 12:29 | -11.11873 | -36.80051 | 39013 ft | 458 kts | 29° |
| 2026-04-30 12:30 | -11.06214 | -36.77139 | 39013 ft | 457 kts | 29° |
| 2026-04-30 12:30 | -11.00515 | -36.74207 | 39001 ft | 457 kts | 29° |
| 2026-04-30 12:31 | -10.94855 | -36.71297 | 39003 ft | 457 kts | 29° |
| 2026-04-30 12:31 | -10.89159 | -36.68369 | 39009 ft | 457 kts | 29° |
| 2026-04-30 12:32 | -10.83475 | -36.65449 | 39002 ft | 457 kts | 29° |
| 2026-04-30 12:32 | -10.77775 | -36.62556 | 39005 ft | 458 kts | 28° |
| 2026-04-30 12:33 | -10.72083 | -36.59699 | 39003 ft | 458 kts | 28° |
| 2026-04-30 12:33 | -10.66374 | -36.56832 | 39015 ft | 458 kts | 28° |
| 2026-04-30 12:34 | -10.60642 | -36.53949 | 39006 ft | 458 kts | 28° |
| 2026-04-30 12:34 | -10.54959 | -36.51090 | 39008 ft | 458 kts | 28° |
| 2026-04-30 12:35 | -10.49237 | -36.48212 | 39009 ft | 458 kts | 28° |
| 2026-04-30 12:35 | -10.43517 | -36.45336 | 39009 ft | 458 kts | 28° |
| 2026-04-30 12:36 | -10.37792 | -36.42460 | 39007 ft | 458 kts | 28° |
| 2026-04-30 12:36 | -10.32068 | -36.39584 | 39007 ft | 458 kts | 28° |
| 2026-04-30 12:37 | -10.26372 | -36.36724 | 39007 ft | 458 kts | 28° |
| 2026-04-30 12:37 | -10.20646 | -36.33850 | 39009 ft | 458 kts | 28° |
| 2026-04-30 12:38 | -10.14948 | -36.30992 | 39012 ft | 458 kts | 28° |
| 2026-04-30 12:38 | -10.09214 | -36.28117 | 39016 ft | 458 kts | 27° |
| 2026-04-30 12:39 | -10.03476 | -36.25240 | 39010 ft | 459 kts | 27° |
| 2026-04-30 12:39 | -9.97784 | -36.22388 | 39019 ft | 459 kts | 27° |
| 2026-04-30 12:40 | -9.92049 | -36.19516 | 39008 ft | 459 kts | 27° |
| 2026-04-30 12:40 | -9.86345 | -36.16660 | 39008 ft | 459 kts | 27° |
| 2026-04-30 12:41 | -9.80614 | -36.13792 | 39009 ft | 459 kts | 27° |
| 2026-04-30 12:41 | -9.74863 | -36.10913 | 39018 ft | 459 kts | 27° |
| 2026-04-30 12:42 | -9.69171 | -36.08066 | 39011 ft | 459 kts | 27° |
| 2026-04-30 12:42 | -9.63438 | -36.05201 | 39007 ft | 459 kts | 27° |
| 2026-04-30 12:43 | -9.57667 | -36.02317 | 38363 ft | 467 kts | 27° |
| 2026-04-30 12:43 | -9.54749 | -36.00859 | 37719 ft | 464 kts | 27° |
| 2026-04-30 12:43 | -9.51848 | -35.99410 | 37024 ft | 463 kts | 27° |
| 2026-04-30 12:44 | -9.48997 | -35.97986 | 36347 ft | 462 kts | 27° |
| 2026-04-30 12:44 | -9.46113 | -35.96547 | 35627 ft | 462 kts | 27° |
| 2026-04-30 12:44 | -9.43219 | -35.95101 | 34859 ft | 463 kts | 27° |
| 2026-04-30 12:44 | -9.40319 | -35.93654 | 34220 ft | 461 kts | 27° |
| 2026-04-30 12:45 | -9.37443 | -35.92219 | 33572 ft | 458 kts | 27° |
| 2026-04-30 12:45 | -9.34592 | -35.90797 | 33000 ft | 453 kts | 28° |
| 2026-04-30 12:45 | -9.31772 | -35.89391 | 32442 ft | 449 kts | 28° |
| 2026-04-30 12:45 | -9.28986 | -35.88001 | 31907 ft | 444 kts | 28° |
| 2026-04-30 12:46 | -9.26257 | -35.86641 | 31396 ft | 440 kts | 28° |
| 2026-04-30 12:46 | -9.23514 | -35.85272 | 30874 ft | 436 kts | 28° |
| 2026-04-30 12:46 | -9.20802 | -35.83920 | 30371 ft | 432 kts | 28° |
| 2026-04-30 12:46 | -9.18110 | -35.82578 | 29837 ft | 429 kts | 28° |
| 2026-04-30 12:47 | -9.15442 | -35.81248 | 29253 ft | 425 kts | 28° |
| 2026-04-30 12:47 | -9.12832 | -35.79947 | 28718 ft | 420 kts | 28° |
| 2026-04-30 12:47 | -9.10180 | -35.78626 | 28190 ft | 415 kts | 28° |
| 2026-04-30 12:47 | -9.07626 | -35.77353 | 27686 ft | 411 kts | 28° |
| 2026-04-30 12:48 | -9.05067 | -35.76079 | 27176 ft | 407 kts | 28° |
| 2026-04-30 12:48 | -9.02540 | -35.74808 | 26688 ft | 403 kts | 31° |
| 2026-04-30 12:48 | -9.00305 | -35.73158 | 26360 ft | 391 kts | 45° |
| 2026-04-30 12:48 | -8.98338 | -35.71287 | 26071 ft | 385 kts | 46° |
| 2026-04-30 12:49 | -8.96447 | -35.69438 | 25636 ft | 382 kts | 46° |
| 2026-04-30 12:49 | -8.94544 | -35.67573 | 25187 ft | 379 kts | 46° |
| 2026-04-30 12:49 | -8.92647 | -35.65728 | 24726 ft | 377 kts | 46° |
| 2026-04-30 12:49 | -8.90742 | -35.63889 | 24240 ft | 376 kts | 46° |
| 2026-04-30 12:50 | -8.88858 | -35.62082 | 23764 ft | 375 kts | 46° |
| 2026-04-30 12:50 | -8.86943 | -35.60252 | 23232 ft | 374 kts | 46° |
| 2026-04-30 12:50 | -8.85058 | -35.58454 | 22729 ft | 371 kts | 46° |
| 2026-04-30 12:50 | -8.83187 | -35.56671 | 22246 ft | 367 kts | 46° |
| 2026-04-30 12:51 | -8.81332 | -35.54904 | 21778 ft | 364 kts | 46° |
| 2026-04-30 12:51 | -8.79497 | -35.53156 | 21326 ft | 361 kts | 46° |
| 2026-04-30 12:51 | -8.77674 | -35.51419 | 20876 ft | 358 kts | 46° |
| 2026-04-30 12:51 | -8.75865 | -35.49696 | 20433 ft | 355 kts | 46° |
| 2026-04-30 12:52 | -8.74087 | -35.48001 | 19998 ft | 353 kts | 46° |
| 2026-04-30 12:52 | -8.72303 | -35.46302 | 19552 ft | 350 kts | 46° |
| 2026-04-30 12:52 | -8.71126 | -35.45182 | 19266 ft | 348 kts | 46° |
| 2026-04-30 12:52 | -8.68790 | -35.42959 | 18685 ft | 345 kts | 46° |
| 2026-04-30 12:53 | -8.67631 | -35.41858 | 18452 ft | 342 kts | 46° |
| 2026-04-30 12:53 | -8.65905 | -35.40221 | 18016 ft | 339 kts | 46° |
| 2026-04-30 12:53 | -8.64183 | -35.38587 | 17554 ft | 336 kts | 46° |
| 2026-04-30 12:53 | -8.62478 | -35.36970 | 17101 ft | 334 kts | 46° |
| 2026-04-30 12:54 | -8.60812 | -35.35388 | 16666 ft | 331 kts | 46° |
| 2026-04-30 12:54 | -8.59127 | -35.33790 | 16232 ft | 329 kts | 45° |
| 2026-04-30 12:54 | -8.57480 | -35.32227 | 15797 ft | 327 kts | 45° |
| 2026-04-30 12:54 | -8.55823 | -35.30655 | 15375 ft | 325 kts | 45° |
| 2026-04-30 12:55 | -8.54167 | -35.29084 | 14944 ft | 324 kts | 45° |
| 2026-04-30 12:55 | -8.52540 | -35.27540 | 14496 ft | 324 kts | 45° |
| 2026-04-30 12:55 | -8.50898 | -35.25983 | 14060 ft | 323 kts | 44° |
| 2026-04-30 12:55 | -8.49254 | -35.24423 | 13593 ft | 323 kts | 44° |
| 2026-04-30 12:56 | -8.47916 | -35.23155 | 13216 ft | 322 kts | 44° |
| 2026-04-30 12:56 | -8.46237 | -35.21563 | 12758 ft | 320 kts | 44° |
| 2026-04-30 12:56 | -8.44633 | -35.20043 | 12312 ft | 319 kts | 44° |
| 2026-04-30 12:56 | -8.43015 | -35.18510 | 11893 ft | 317 kts | 44° |
| 2026-04-30 12:57 | -8.41411 | -35.16992 | 11450 ft | 315 kts | 44° |
| 2026-04-30 12:57 | -8.39811 | -35.15481 | 11028 ft | 314 kts | 44° |
| 2026-04-30 12:57 | -8.38221 | -35.13978 | 10600 ft | 312 kts | 44° |
| 2026-04-30 12:57 | -8.36663 | -35.12506 | 10365 ft | 305 kts | 44° |
| 2026-04-30 12:58 | -8.35132 | -35.11059 | 10198 ft | 295 kts | 44° |
| 2026-04-30 12:58 | -8.33663 | -35.09671 | 10068 ft | 285 kts | 44° |
| 2026-04-30 12:58 | -8.32217 | -35.08305 | 9834 ft | 279 kts | 44° |
| 2026-04-30 12:58 | -8.30800 | -35.06966 | 9499 ft | 277 kts | 44° |
| 2026-04-30 12:59 | -8.29395 | -35.05640 | 9168 ft | 275 kts | 44° |
| 2026-04-30 12:59 | -8.27904 | -35.04431 | 8821 ft | 276 kts | 30° |
| 2026-04-30 12:59 | -8.26108 | -35.03793 | 8515 ft | 277 kts | 15° |
| 2026-04-30 12:59 | -8.24228 | -35.03370 | 8195 ft | 276 kts | 15° |
| 2026-04-30 13:00 | -8.22341 | -35.02948 | 7868 ft | 275 kts | 15° |
| 2026-04-30 13:00 | -8.20448 | -35.02514 | 7532 ft | 275 kts | 15° |
| 2026-04-30 13:00 | -8.18584 | -35.02080 | 7220 ft | 274 kts | 15° |
| 2026-04-30 13:00 | -8.16682 | -35.01919 | 6890 ft | 278 kts | 353° |
| 2026-04-30 13:01 | -8.14833 | -35.02406 | 6638 ft | 278 kts | 346° |
| 2026-04-30 13:01 | -8.12982 | -35.03001 | 6353 ft | 280 kts | 344° |
| 2026-04-30 13:01 | -8.11118 | -35.03610 | 6020 ft | 279 kts | 344° |
| 2026-04-30 13:01 | -8.09268 | -35.04206 | 5728 ft | 278 kts | 345° |
| 2026-04-30 13:02 | -8.07449 | -35.04783 | 5445 ft | 276 kts | 345° |
| 2026-04-30 13:02 | -8.05612 | -35.05360 | 5157 ft | 275 kts | 345° |
| 2026-04-30 13:02 | -8.03787 | -35.05931 | 4894 ft | 274 kts | 345° |
| 2026-04-30 13:02 | -8.01958 | -35.06485 | 4599 ft | 272 kts | 350° |
| 2026-04-30 13:03 | -8.00099 | -35.06445 | 4321 ft | 264 kts | 19° |
| 2026-04-30 13:03 | -7.98533 | -35.05553 | 4052 ft | 255 kts | 47° |
| 2026-04-30 13:03 | -7.97512 | -35.04166 | 3812 ft | 247 kts | 68° |
| 2026-04-30 13:03 | -7.96900 | -35.02558 | 3553 ft | 242 kts | 75° |
| 2026-04-30 13:04 | -7.96390 | -35.00955 | 3291 ft | 235 kts | 77° |
| 2026-04-30 13:04 | -7.96393 | -34.99381 | 3036 ft | 221 kts | 114° |
| 2026-04-30 13:04 | -7.97328 | -34.98234 | 2873 ft | 210 kts | 143° |
| 2026-04-30 13:04 | -7.98500 | -34.97385 | 2630 ft | 203 kts | 146° |
| 2026-04-30 13:05 | -7.99693 | -34.96744 | 2373 ft | 189 kts | 154° |
| 2026-04-30 13:05 | -8.00854 | -34.96252 | 2148 ft | 172 kts | 158° |
| 2026-04-30 13:05 | -8.01947 | -34.95867 | 1948 ft | 159 kts | 160° |
| 2026-04-30 13:06 | -8.03992 | -34.95187 | 1551 ft | 146 kts | 161° |
| 2026-04-30 13:06 | -8.04946 | -34.94870 | 1353 ft | 142 kts | 161° |
| 2026-04-30 13:06 | -8.05854 | -34.94572 | 1185 ft | 132 kts | 161° |
| 2026-04-30 13:06 | -8.06713 | -34.94285 | 993 ft | 129 kts | 160° |
| 2026-04-30 13:07 | -8.07537 | -34.94012 | 879 ft | 125 kts | 161° |
| 2026-04-30 13:07 | -8.08387 | -34.93728 | 698 ft | 131 kts | 160° |
| 2026-04-30 13:07 | -8.09244 | -34.93443 | 516 ft | 126 kts | 159° |
| 2026-04-30 13:07 | -8.10067 | -34.93169 | 373 ft | 124 kts | 160° |
| 2026-04-30 13:08 | -8.10876 | -34.92924 | 155 ft | 120 kts | 157° |
| 2026-04-30 13:08 | -8.11619 | -34.92653 | 69 ft | 105 kts | 159° |
| 2026-04-30 13:08 | -8.12274 | -34.92432 | 43 ft | 83 kts | 161° |
| 2026-04-30 13:08 | -8.12666 | -34.92310 | 48 ft | 27 kts | 162° |
| 2026-04-30 13:09 | -8.12827 | -34.92257 | 50 ft | 15 kts | 161° |
| 2026-04-30 13:09 | -8.12932 | -34.92221 | 48 ft | 16 kts | 161° |
| 2026-04-30 13:09 | -8.13024 | -34.92190 | 46 ft | 6 kts | 161° |
| 2026-04-30 13:09 | -8.13060 | -34.92177 | 45 ft | 5 kts | 158° |
| 2026-04-30 13:10 | -8.13097 | -34.92165 | 46 ft | 6 kts | 163° |
| 2026-04-30 13:10 | -8.13148 | -34.92148 | 45 ft | 9 kts | 157° |
| 2026-04-30 13:10 | -8.13200 | -34.92113 | 43 ft | 9 kts | 141° |
| 2026-04-30 13:10 | -8.13246 | -34.92066 | 42 ft | 9 kts | 133° |
| 2026-04-30 13:11 | -8.13289 | -34.92018 | 41 ft | 9 kts | 133° |
| 2026-04-30 13:11 | -8.13332 | -34.91971 | 43 ft | 9 kts | 133° |
| 2026-04-30 13:11 | -8.13366 | -34.91922 | 41 ft | 8 kts | 96° |
| 2026-04-30 13:11 | -8.13357 | -34.91879 | 45 ft | 3 kts | 72° |
| 2026-04-30 13:12 | -8.13350 | -34.91858 | 45 ft | 3 kts | 73° |
| 2026-04-30 13:12 | -8.13348 | -34.91851 | 44 ft | 0 kts | 73° |